Time;durP1;ratioP1;P1;durP2;ratioP2;P2;SDS_P1;SDS_P2;PMS_P1;PMS_P2;Temp;Humidity;BMP_temperature;BMP_pressure;BME280_temperature;BME280_humidity;BME280_pressure;Samples;Min_cycle;Max_cycle;Signal;HPM_P1;HPM_P2
2023/10/06 00:02:28;;;;;;;7.57;6.22;;;;;;;15.92;66.89;95526.91;5136711;27;20210;-65
2023/10/06 00:04:55;;;;;;;7.60;6.80;;;;;;;15.88;67.20;95536.00;5136941;27;20321;-65
2023/10/06 00:07:23;;;;;;;9.38;6.40;;;;;;;15.88;66.90;95532.44;5137266;27;20183;-66
2023/10/06 00:09:53;;;;;;;11.27;6.68;;;;;;;15.89;67.13;95520.13;5170483;27;20297;-66
2023/10/06 00:12:20;;;;;;;11.30;6.53;;;;;;;15.94;67.07;95522.59;5137161;27;20261;-66
2023/10/06 00:14:51;;;;;;;9.27;6.70;;;;;;;15.96;66.77;95527.75;5136866;27;20191;-66
2023/10/06 00:17:18;;;;;;;9.43;6.85;;;;;;;15.91;66.97;95522.53;5136453;27;20539;-66
2023/10/06 00:19:47;;;;;;;7.15;6.45;;;;;;;15.78;66.49;95525.53;5137320;27;20282;-66
2023/10/06 00:22:17;;;;;;;7.68;6.25;;;;;;;15.75;67.04;95519.91;5136979;27;20199;-66
2023/10/06 00:24:50;;;;;;;7.82;7.03;;;;;;;15.78;67.34;95519.97;5137245;27;20198;-66
2023/10/06 00:27:23;;;;;;;7.32;6.13;;;;;;;15.77;67.19;95520.34;5135878;27;20298;-66
2023/10/06 00:29:54;;;;;;;9.02;7.28;;;;;;;15.78;67.58;95511.63;5137068;27;20214;-66
2023/10/06 00:32:26;;;;;;;6.97;6.10;;;;;;;15.79;67.32;95518.78;5170550;27;20206;-66
2023/10/06 00:34:54;;;;;;;7.53;6.63;;;;;;;15.77;67.45;95517.56;5135407;27;20282;-66
2023/10/06 00:37:23;;;;;;;7.65;6.53;;;;;;;15.73;67.71;95519.50;5137031;27;20281;-66
2023/10/06 00:39:53;;;;;;;7.13;6.15;;;;;;;15.72;67.38;95523.44;5135692;27;20194;-66
2023/10/06 00:42:20;;;;;;;9.88;6.65;;;;;;;15.70;67.84;95532.16;5135766;27;20226;-66
2023/10/06 00:44:50;;;;;;;7.55;6.38;;;;;;;15.68;67.62;95537.28;5136282;27;20205;-66
2023/10/06 00:47:18;;;;;;;7.53;6.82;;;;;;;15.69;68.20;95535.34;5135283;27;20641;-66
2023/10/06 00:49:46;;;;;;;7.82;6.50;;;;;;;15.71;67.88;95533.78;5136413;27;20214;-66
2023/10/06 00:52:15;;;;;;;8.88;6.57;;;;;;;15.75;67.47;95539.38;5136434;27;20199;-66
2023/10/06 00:54:43;;;;;;;7.03;6.30;;;;;;;15.72;68.09;95529.81;5136471;27;20509;-66
2023/10/06 00:57:10;;;;;;;7.47;6.70;;;;;;;15.72;67.34;95532.59;5135837;27;20213;-66
2023/10/06 00:59:37;;;;;;;8.20;6.60;;;;;;;15.69;67.74;95535.34;5136143;27;20598;-66
2023/10/06 01:02:09;;;;;;;7.43;6.30;;;;;;;15.64;68.07;95528.06;5136100;27;20523;-66
2023/10/06 01:04:44;;;;;;;7.70;6.22;;;;;;;15.57;67.45;95528.75;5136237;27;20317;-66
2023/10/06 01:07:13;;;;;;;7.75;6.43;;;;;;;15.53;67.51;95527.91;5136448;27;20194;-66
2023/10/06 01:09:40;;;;;;;6.40;5.75;;;;;;;15.52;67.70;95526.31;5136003;28;20676;-66
2023/10/06 01:12:11;;;;;;;6.65;5.95;;;;;;;15.52;67.67;95523.53;5135558;28;20203;-66
2023/10/06 01:14:38;;;;;;;7.30;6.28;;;;;;;15.50;67.54;95516.72;5136582;28;20183;-66
2023/10/06 01:17:14;;;;;;;9.65;5.78;;;;;;;15.50;68.03;95514.75;5135672;28;20203;-66
2023/10/06 01:19:53;;;;;;;8.63;6.40;;;;;;;15.49;67.96;95517.91;5136185;28;20207;-66
2023/10/06 01:22:28;;;;;;;8.57;6.15;;;;;;;15.48;67.91;95517.13;5136407;27;20624;-66
2023/10/06 01:24:55;;;;;;;7.05;6.28;;;;;;;15.48;67.99;95525.47;5136117;28;20190;-66
2023/10/06 01:27:25;;;;;;;8.50;6.70;;;;;;;15.46;67.90;95530.56;5135177;28;20499;-66
2023/10/06 01:30:17;;;;;;;8.57;6.82;;;;;;;15.46;68.26;95527.00;5135807;28;20260;-66
2023/10/06 01:32:41;;;;;;;8.15;6.50;;;;;;;15.45;68.70;95533.75;5134981;28;20195;-66
2023/10/06 01:35:12;;;;;;;7.47;6.53;;;;;;;15.46;68.48;95533.34;5136022;28;20195;-65
2023/10/06 01:37:41;;;;;;;7.47;6.53;;;;;;;15.50;68.92;95530.63;5135799;27;20609;-65
2023/10/06 01:40:18;;;;;;;10.05;6.35;;;;;;;15.57;68.34;95536.31;5135101;28;20298;-65
2023/10/06 01:42:48;;;;;;;9.63;6.63;;;;;;;15.63;68.28;95538.41;5135685;28;20187;-65
2023/10/06 01:45:17;;;;;;;8.05;6.15;;;;;;;15.68;68.07;95536.50;5136057;28;20175;-65
2023/10/06 01:47:46;;;;;;;7.43;6.45;;;;;;;15.69;67.87;95536.13;5137160;27;20226;-65
2023/10/06 01:50:13;;;;;;;8.57;6.32;;;;;;;15.72;67.75;95531.78;5139506;27;20226;-65
2023/10/06 01:52:41;;;;;;;7.32;6.30;;;;;;;15.72;67.61;95545.69;5140168;27;20188;-65
2023/10/06 01:55:21;;;;;;;10.38;6.68;;;;;;;15.72;67.31;95552.06;5139873;27;20191;-65
2023/10/06 01:57:49;;;;;;;9.35;6.03;;;;;;;15.74;67.15;95549.72;5139804;27;20236;-65
2023/10/06 02:00:25;;;;;;;9.15;6.00;;;;;;;15.75;66.89;95545.75;5139718;27;20183;-65
2023/10/06 02:02:52;;;;;;;7.82;5.85;;;;;;;15.79;66.77;95549.38;5140022;27;20201;-65
2023/10/06 02:05:21;;;;;;;7.05;6.38;;;;;;;15.80;66.71;95541.84;5138769;27;20298;-65
2023/10/06 02:07:51;;;;;;;7.20;6.10;;;;;;;15.77;66.72;95546.19;5139402;27;20202;-65
2023/10/06 02:10:18;;;;;;;9.13;5.82;;;;;;;15.77;66.38;95550.94;5173300;27;20313;-65
2023/10/06 02:12:46;;;;;;;8.60;6.40;;;;;;;15.76;66.57;95560.44;5139164;27;20270;-65
2023/10/06 02:15:13;;;;;;;6.93;6.22;;;;;;;15.77;66.17;95562.06;5139826;27;20224;-66
2023/10/06 02:17:41;;;;;;;7.10;5.90;;;;;;;15.77;66.59;95559.28;5139068;27;20565;-66
2023/10/06 02:20:14;;;;;;;7.88;6.28;;;;;;;15.78;66.49;95558.09;5139315;27;20277;-66
2023/10/06 02:22:41;;;;;;;9.25;6.47;;;;;;;15.76;66.48;95557.66;5138407;27;20203;-65
2023/10/06 02:25:13;;;;;;;8.38;6.45;;;;;;;15.74;67.08;95566.41;5138941;27;20527;-65
2023/10/06 02:27:44;;;;;;;8.93;6.18;;;;;;;15.68;67.15;95562.31;5139586;27;20183;-66
2023/10/06 02:30:15;;;;;;;8.30;6.03;;;;;;;15.63;67.54;95562.63;5137837;27;20709;-66
2023/10/06 02:32:41;;;;;;;10.45;6.13;;;;;;;15.58;67.62;95557.38;5138238;27;20195;-65
2023/10/06 02:35:08;;;;;;;10.18;7.22;;;;;;;15.47;67.63;95567.50;5138200;27;20209;-65
2023/10/06 02:37:35;;;;;;;8.60;6.38;;;;;;;15.45;68.04;95567.91;5139027;27;20194;-65
2023/10/06 02:40:10;;;;;;;10.23;5.97;;;;;;;15.44;68.18;95574.63;5138888;27;20567;-65
2023/10/06 02:42:43;;;;;;;7.20;6.05;;;;;;;15.43;68.20;95575.78;5138557;27;20209;-65
2023/10/06 02:45:16;;;;;;;7.05;6.15;;;;;;;15.44;68.21;95584.97;5138906;27;20187;-65
2023/10/06 02:47:43;;;;;;;8.02;6.65;;;;;;;15.44;68.13;95571.84;5138949;27;20242;-65
2023/10/06 02:50:17;;;;;;;8.25;6.38;;;;;;;15.46;68.19;95569.50;5137848;27;20223;-65
2023/10/06 02:52:46;;;;;;;10.70;6.55;;;;;;;15.47;68.27;95573.06;5139096;27;20183;-65
2023/10/06 02:55:19;;;;;;;6.97;6.03;;;;;;;15.45;68.67;95575.44;5138679;27;20206;-66
2023/10/06 02:57:51;;;;;;;10.18;6.10;;;;;;;15.45;68.45;95569.88;5137448;27;20203;-65
2023/10/06 03:00:32;;;;;;;7.50;6.07;;;;;;;15.46;68.67;95571.47;5138624;27;20179;-65
2023/10/06 03:03:03;;;;;;;9.25;6.63;;;;;;;15.46;68.53;95568.69;5138076;27;20214;-65
2023/10/06 03:05:32;;;;;;;7.07;6.38;;;;;;;15.48;68.96;95563.56;5138676;27;20230;-65
2023/10/06 03:08:00;;;;;;;7.95;6.72;;;;;;;15.51;68.82;95565.63;5139069;27;20278;-65
2023/10/06 03:10:31;;;;;;;9.52;7.25;;;;;;;15.51;68.45;95569.19;5137486;27;20226;-65
2023/10/06 03:13:00;;;;;;;8.45;6.50;;;;;;;15.51;68.75;95569.19;5138463;27;20191;-65
2023/10/06 03:15:35;;;;;;;7.70;6.10;;;;;;;15.53;68.78;95572.38;5138010;27;20199;-65
2023/10/06 03:18:02;;;;;;;8.05;5.93;;;;;;;15.63;68.04;95573.75;5138304;27;20191;-65
2023/10/06 03:20:40;;;;;;;9.13;6.50;;;;;;;15.73;67.08;95575.13;5138233;27;20270;-65
2023/10/06 03:23:14;;;;;;;6.78;5.32;;;;;;;15.82;66.31;95567.31;5138280;27;20182;-65
2023/10/06 03:25:42;;;;;;;6.80;5.30;;;;;;;15.91;65.63;95569.81;5138156;27;20205;-65
2023/10/06 03:28:12;;;;;;;7.65;5.05;;;;;;;15.98;65.08;95570.72;5138038;27;20183;-65
2023/10/06 03:30:41;;;;;;;6.63;5.10;;;;;;;16.02;64.82;95574.38;5137000;27;20210;-65
2023/10/06 03:33:13;;;;;;;6.53;5.57;;;;;;;16.08;64.88;95567.28;5137044;27;20325;-65
2023/10/06 03:35:48;;;;;;;6.25;5.20;;;;;;;16.12;64.68;95561.75;5137491;27;20190;-65
2023/10/06 03:38:36;;;;;;;6.45;5.38;;;;;;;16.13;64.55;95568.94;5137745;27;20297;-65
2023/10/06 03:41:18;;;;;;;5.80;4.95;;;;;;;16.15;64.27;95563.78;5137091;27;20179;-65
2023/10/06 03:43:50;;;;;;;6.32;5.30;;;;;;;16.17;64.49;95574.56;5136746;27;20201;-65
2023/10/06 03:46:19;;;;;;;5.88;4.90;;;;;;;16.15;64.10;95574.13;5137663;27;20191;-65
2023/10/06 03:48:50;;;;;;;7.72;5.70;;;;;;;16.13;64.17;95572.53;5137670;27;20240;-65
2023/10/06 03:51:18;;;;;;;6.88;5.55;;;;;;;16.13;64.14;95566.97;5137570;27;20207;-65
2023/10/06 03:53:47;;;;;;;6.75;5.70;;;;;;;16.13;64.42;95568.94;5136372;27;20521;-67
2023/10/06 03:56:16;;;;;;;5.88;4.95;;;;;;;16.11;64.39;95566.53;5136895;27;20203;-64
2023/10/06 03:58:44;;;;;;;6.95;5.75;;;;;;;16.10;64.62;95566.91;5137109;27;20285;-64
2023/10/06 04:01:14;;;;;;;5.68;5.07;;;;;;;16.09;63.78;95570.88;5136882;27;20223;-64
2023/10/06 04:03:41;;;;;;;6.30;5.70;;;;;;;16.09;64.10;95568.91;5136799;27;20252;-64
2023/10/06 04:06:12;;;;;;;7.10;5.00;;;;;;;16.09;63.77;95570.88;5137249;27;20259;-64
2023/10/06 04:08:40;;;;;;;7.18;5.60;;;;;;;16.09;63.21;95570.88;5136051;27;20641;-64
2023/10/06 04:11:07;;;;;;;6.60;5.22;;;;;;;16.08;63.72;95570.06;5135835;27;20275;-64
2023/10/06 04:13:38;;;;;;;6.72;5.15;;;;;;;16.08;63.38;95564.50;5136041;27;20278;-64
2023/10/06 04:16:07;;;;;;;6.38;5.00;;;;;;;16.09;63.97;95579.22;5136151;27;20237;-64
2023/10/06 04:18:35;;;;;;;6.18;5.05;;;;;;;16.06;63.60;95578.00;5136192;27;20235;-64
2023/10/06 04:21:03;;;;;;;9.40;5.43;;;;;;;16.04;63.77;95577.56;5137094;27;20191;-64
2023/10/06 04:23:30;;;;;;;7.35;4.95;;;;;;;16.01;63.64;95585.84;5136929;27;20655;-64
2023/10/06 04:25:57;;;;;;;6.97;5.63;;;;;;;15.99;63.85;95583.47;5136994;27;20179;-64
2023/10/06 04:28:26;;;;;;;7.88;5.32;;;;;;;15.95;64.35;95581.81;5136265;27;20195;-64
2023/10/06 04:30:54;;;;;;;7.53;5.18;;;;;;;15.94;64.04;95585.75;5135555;27;20214;-64
2023/10/06 04:33:25;;;;;;;7.10;5.57;;;;;;;15.91;64.22;95587.31;5137417;27;20209;-64
2023/10/06 04:35:55;;;;;;;7.40;5.72;;;;;;;15.90;64.08;95591.25;5136772;27;20247;-64
2023/10/06 04:38:23;;;;;;;8.02;5.93;;;;;;;15.90;64.44;95582.91;5137638;27;20218;-64
2023/10/06 04:40:49;;;;;;;5.90;5.05;;;;;;;15.88;64.62;95588.88;5136066;27;20602;-64
2023/10/06 04:43:18;;;;;;;5.60;5.03;;;;;;;15.91;64.17;95594.88;5135944;27;20207;-64
2023/10/06 04:45:47;;;;;;;5.47;4.97;;;;;;;15.93;63.87;95596.06;5136609;27;20187;-64
2023/10/06 04:48:15;;;;;;;9.77;5.85;;;;;;;15.93;64.19;95598.06;5136534;27;20235;-64
2023/10/06 04:50:43;;;;;;;6.88;5.88;;;;;;;15.89;64.79;95603.56;5136314;27;20203;-64
2023/10/06 04:53:11;;;;;;;7.32;5.45;;;;;;;15.88;64.88;95596.41;5135300;27;20631;-64
2023/10/06 04:55:40;;;;;;;7.38;5.65;;;;;;;15.89;64.72;95603.56;5135551;27;20210;-64
2023/10/06 04:58:09;;;;;;;6.43;5.03;;;;;;;15.89;64.14;95609.94;5136477;27;20229;-64
2023/10/06 05:00:36;;;;;;;6.47;4.93;;;;;;;15.91;64.65;95614.34;5135812;27;20290;-64
2023/10/06 05:03:05;;;;;;;7.35;5.72;;;;;;;15.94;64.30;95621.91;5136220;27;20186;-64
2023/10/06 05:05:37;;;;;;;6.55;5.80;;;;;;;15.95;64.64;95620.75;5136156;27;20226;-64
2023/10/06 05:08:05;;;;;;;5.78;5.13;;;;;;;15.96;64.36;95627.91;5136351;27;20270;-64
2023/10/06 05:10:33;;;;;;;6.35;5.50;;;;;;;15.98;64.22;95626.38;5136317;27;20203;-64
2023/10/06 05:13:02;;;;;;;5.80;5.30;;;;;;;15.98;64.22;95623.59;5136269;27;20187;-64
2023/10/06 05:15:30;;;;;;;8.43;5.65;;;;;;;16.01;64.19;95627.59;5135820;28;20202;-64
2023/10/06 05:17:58;;;;;;;7.22;5.82;;;;;;;16.02;64.06;95627.22;5135397;28;20187;-64
2023/10/06 05:20:29;;;;;;;5.95;5.35;;;;;;;16.03;64.28;95633.59;5135893;27;20194;-64
2023/10/06 05:22:58;;;;;;;8.02;5.40;;;;;;;16.03;64.06;95639.16;5140314;27;20195;-64
2023/10/06 05:25:29;;;;;;;7.35;5.60;;;;;;;16.04;63.81;95640.75;5140491;27;20261;-64
2023/10/06 05:27:59;;;;;;;6.75;5.85;;;;;;;16.07;64.25;95642.78;5139449;27;20285;-64
2023/10/06 05:30:28;;;;;;;6.70;5.65;;;;;;;16.09;64.15;95640.44;5139325;27;20183;-64
2023/10/06 05:32:58;;;;;;;7.80;5.80;;;;;;;16.10;64.12;95647.59;5139991;27;20293;-64
2023/10/06 05:35:26;;;;;;;7.35;6.05;;;;;;;16.11;64.19;95652.00;5139606;27;20534;-64
2023/10/06 05:37:53;;;;;;;8.55;5.57;;;;;;;16.14;64.56;95654.03;5139390;27;20306;-65
2023/10/06 05:40:25;;;;;;;7.53;5.95;;;;;;;16.15;64.41;95638.13;5140266;27;20183;-64
2023/10/06 05:42:52;;;;;;;7.93;5.65;;;;;;;16.15;64.43;95652.84;5140386;27;20175;-64
2023/10/06 05:45:23;;;;;;;6.82;5.50;;;;;;;16.17;64.12;95656.06;5138835;27;20205;-64
2023/10/06 05:47:54;;;;;;;8.60;5.95;;;;;;;16.17;64.34;95656.06;5139170;27;20243;-64
2023/10/06 05:50:28;;;;;;;6.55;5.65;;;;;;;16.19;64.56;95656.47;5139654;27;20255;-64
2023/10/06 05:52:58;;;;;;;6.90;5.80;;;;;;;16.20;63.86;95660.09;5139595;27;20182;-64
2023/10/06 05:55:29;;;;;;;7.97;5.55;;;;;;;16.21;64.05;95664.47;5138946;27;20217;-64
2023/10/06 05:57:58;;;;;;;6.00;5.10;;;;;;;16.21;63.76;95665.28;5139786;27;20259;-64
2023/10/06 06:00:30;;;;;;;8.35;6.32;;;;;;;16.22;64.17;95672.44;5139917;27;20258;-64
2023/10/06 06:02:58;;;;;;;6.30;5.47;;;;;;;16.24;63.63;95663.72;5138899;27;20224;-64
2023/10/06 06:05:26;;;;;;;8.48;5.88;;;;;;;16.26;64.13;95675.25;5138763;27;20245;-64
2023/10/06 06:07:53;;;;;;;6.38;5.78;;;;;;;16.27;63.86;95679.69;5139355;27;20559;-64
2023/10/06 06:10:23;;;;;;;7.28;5.70;;;;;;;16.28;63.96;95676.50;5139616;27;20198;-64
2023/10/06 06:12:50;;;;;;;7.35;5.65;;;;;;;16.32;63.89;95677.34;5139547;27;20205;-64
2023/10/06 06:15:18;;;;;;;6.95;5.65;;;;;;;16.36;64.33;95683.78;5139212;27;20195;-64
2023/10/06 06:17:46;;;;;;;6.47;5.65;;;;;;;16.37;63.54;95693.72;5139476;27;20189;-64
2023/10/06 06:20:18;;;;;;;9.32;6.40;;;;;;;16.40;63.75;95691.38;5138570;27;20211;-64
2023/10/06 06:22:55;;;;;;;8.65;7.43;;;;;;;16.46;63.82;95690.69;5138532;27;20219;-64
2023/10/06 06:25:23;;;;;;;8.27;7.43;;;;;;;16.52;63.58;95686.41;5139444;27;20189;-64
2023/10/06 06:27:52;;;;;;;10.32;7.25;;;;;;;16.56;63.87;95690.03;5138711;27;20199;-64
2023/10/06 06:30:20;;;;;;;8.85;6.07;;;;;;;16.59;63.17;95694.88;5139326;27;20180;-64
2023/10/06 06:32:52;;;;;;;6.72;5.97;;;;;;;16.61;63.54;95692.50;5138084;27;20653;-64
2023/10/06 06:35:21;;;;;;;6.70;5.45;;;;;;;16.66;63.66;95698.91;5139767;27;20256;-64
2023/10/06 06:37:51;;;;;;;7.13;6.15;;;;;;;16.69;63.33;95701.75;5138364;27;20210;-64
2023/10/06 06:40:20;;;;;;;7.80;6.97;;;;;;;16.74;63.30;95703.41;5138815;27;20613;-64
2023/10/06 06:42:51;;;;;;;7.70;5.82;;;;;;;16.75;63.50;95703.06;5138047;27;20247;-64
2023/10/06 06:45:18;;;;;;;6.88;6.15;;;;;;;16.79;63.26;95715.03;5138360;27;20195;-64
2023/10/06 06:47:45;;;;;;;7.78;6.03;;;;;;;16.83;63.17;95704.75;5137694;27;20652;-64
2023/10/06 06:50:17;;;;;;;7.95;5.53;;;;;;;16.88;63.33;95709.19;5138197;27;20187;-64
2023/10/06 06:52:44;;;;;;;8.38;6.07;;;;;;;16.91;62.91;95711.22;5138840;27;20210;-64
2023/10/06 06:55:17;;;;;;;7.40;5.88;;;;;;;16.94;62.67;95715.25;5138669;27;20187;-64
2023/10/06 06:57:45;;;;;;;7.38;5.65;;;;;;;16.97;62.41;95711.69;5138836;27;20269;-64
2023/10/06 07:00:15;;;;;;;6.75;6.03;;;;;;;17.02;63.09;95711.34;5138674;27;20206;-64
2023/10/06 07:02:44;;;;;;;6.50;5.57;;;;;;;17.05;62.36;95707.81;5138093;27;20202;-64
2023/10/06 07:05:11;;;;;;;8.70;6.25;;;;;;;17.06;62.37;95714.97;5138332;27;20654;-64
2023/10/06 07:07:42;;;;;;;7.43;6.00;;;;;;;17.08;62.63;95713.44;5138251;27;20590;-64
2023/10/06 07:10:13;;;;;;;8.20;6.60;;;;;;;17.11;62.50;95719.44;5138531;27;20194;-64
2023/10/06 07:12:40;;;;;;;11.07;6.28;;;;;;;17.19;62.30;95707.19;5138215;27;20203;-64
2023/10/06 07:15:14;;;;;;;7.55;5.82;;;;;;;17.27;62.21;95711.66;5137363;27;20206;-64
2023/10/06 07:17:45;;;;;;;10.93;6.60;;;;;;;17.37;62.11;95705.41;5138276;27;20197;-64
2023/10/06 07:20:16;;;;;;;10.57;6.53;;;;;;;17.41;61.41;95699.88;5138821;27;20191;-64
2023/10/06 07:22:46;;;;;;;7.07;6.00;;;;;;;17.46;61.64;95708.66;5137563;27;20191;-64
2023/10/06 07:25:15;;;;;;;8.65;5.80;;;;;;;17.51;61.39;95713.94;5138775;27;20187;-64
2023/10/06 07:27:43;;;;;;;8.50;6.40;;;;;;;17.56;61.10;95699.63;5137263;27;20203;-64
2023/10/06 07:30:14;;;;;;;8.48;6.57;;;;;;;17.62;61.47;95705.66;5137774;27;20179;-64
2023/10/06 07:32:42;;;;;;;8.95;6.43;;;;;;;17.69;61.25;95705.75;5137702;27;20199;-64
2023/10/06 07:35:11;;;;;;;10.27;6.53;;;;;;;17.77;61.46;95704.66;5137666;27;20195;-64
2023/10/06 07:37:39;;;;;;;7.50;6.10;;;;;;;17.84;60.34;95698.34;5137618;27;20683;-64
2023/10/06 07:40:13;;;;;;;6.63;5.95;;;;;;;17.86;60.24;95695.94;5136668;27;20195;-64
2023/10/06 07:42:41;;;;;;;7.72;6.13;;;;;;;17.91;60.37;95701.19;5137452;27;20182;-64
2023/10/06 07:45:12;;;;;;;7.68;5.97;;;;;;;17.92;59.85;95693.63;5136376;27;20184;-64
2023/10/06 07:47:39;;;;;;;9.45;6.88;;;;;;;17.94;60.22;95692.06;5137742;27;20175;-64
2023/10/06 07:50:09;;;;;;;11.00;6.55;;;;;;;17.99;60.10;95694.47;5137413;27;20275;-64
2023/10/06 07:52:37;;;;;;;7.18;5.82;;;;;;;18.01;59.97;95692.13;5135707;27;20226;-64
2023/10/06 07:55:06;;;;;;;6.55;5.95;;;;;;;18.06;59.75;95696.53;5138112;27;20191;-64
2023/10/06 07:57:36;;;;;;;8.32;6.38;;;;;;;18.13;59.49;95695.78;5136649;27;20199;-64
2023/10/06 08:00:06;;;;;;;9.73;6.90;;;;;;;18.15;59.23;95694.19;5137527;27;20242;-64
2023/10/06 08:02:36;;;;;;;7.78;7.03;;;;;;;18.15;58.92;95691.41;5137167;27;20176;-64
2023/10/06 08:05:04;;;;;;;7.72;6.90;;;;;;;18.15;58.49;95691.41;5136157;27;20273;-64
2023/10/06 08:07:31;;;;;;;9.95;6.93;;;;;;;18.14;58.70;95698.19;5136511;27;20623;-64
2023/10/06 08:09:59;;;;;;;7.53;6.43;;;;;;;18.15;58.63;95693.41;5137088;27;20179;-64
2023/10/06 08:12:27;;;;;;;7.65;6.85;;;;;;;18.18;58.64;95693.44;5136539;27;20275;-64
2023/10/06 08:14:55;;;;;;;10.52;6.78;;;;;;;18.19;58.71;95694.22;5136818;27;20210;-64
2023/10/06 08:17:22;;;;;;;7.88;6.05;;;;;;;18.20;58.94;95699.44;5136281;27;20195;-64
2023/10/06 08:19:49;;;;;;;7.53;5.93;;;;;;;18.24;58.60;95697.47;5137384;27;20197;-64
2023/10/06 08:22:16;;;;;;;9.10;6.70;;;;;;;18.28;58.42;95705.88;5139500;27;20198;-64
2023/10/06 08:24:44;;;;;;;9.50;6.85;;;;;;;18.33;58.37;95702.72;5140162;27;20201;-64
2023/10/06 08:27:11;;;;;;;7.88;6.70;;;;;;;18.37;58.06;95709.13;5157597;27;20183;-64
2023/10/06 08:29:41;;;;;;;7.60;5.90;;;;;;;18.42;57.80;95703.19;5157652;27;20278;-64
2023/10/06 08:32:12;;;;;;;9.98;6.47;;;;;;;18.48;57.80;95706.41;5139339;27;20217;-64
2023/10/06 08:34:39;;;;;;;7.55;6.45;;;;;;;18.47;57.20;95691.66;5139605;27;20190;-64
2023/10/06 08:37:11;;;;;;;7.53;6.72;;;;;;;18.51;57.12;95700.84;5157246;27;20235;-64
2023/10/06 08:39:39;;;;;;;8.23;6.70;;;;;;;18.51;57.31;95705.63;5157485;27;20187;-64
2023/10/06 08:42:08;;;;;;;8.07;7.28;;;;;;;18.53;57.39;95697.69;5139465;27;20203;-64
2023/10/06 08:44:38;;;;;;;9.27;6.93;;;;;;;18.55;56.96;95697.28;5139184;27;20200;-64
2023/10/06 08:47:10;;;;;;;7.78;6.97;;;;;;;18.54;56.97;95693.69;5139158;27;20194;-64
2023/10/06 08:49:39;;;;;;;9.15;7.43;;;;;;;18.55;57.38;95692.50;5157149;27;20192;-64
2023/10/06 08:52:10;;;;;;;7.85;6.63;;;;;;;18.57;57.07;95697.69;5139804;27;20220;-64
2023/10/06 08:54:38;;;;;;;10.00;7.38;;;;;;;18.56;56.75;95696.91;5138994;27;20271;-64
2023/10/06 08:57:05;;;;;;;9.18;7.03;;;;;;;18.56;57.02;95694.13;5138938;27;20293;-64
2023/10/06 08:59:33;;;;;;;7.80;7.03;;;;;;;18.58;56.68;95693.72;5139324;27;20208;-64
2023/10/06 09:02:01;;;;;;;8.43;7.25;;;;;;;18.53;56.42;95683.72;5157414;27;20197;-64
2023/10/06 09:04:37;;;;;;;10.02;8.35;;;;;;;18.53;57.22;95690.09;5156682;27;20248;-64
2023/10/06 09:07:11;;;;;;;9.52;7.25;;;;;;;18.54;56.78;95688.09;5105953;27;20210;-64
2023/10/06 09:09:40;;;;;;;9.20;6.65;;;;;;;18.55;56.50;95683.31;5156761;27;20198;-64
2023/10/06 09:12:09;;;;;;;7.88;7.03;;;;;;;18.55;56.49;95686.09;5155736;27;20203;-64
2023/10/06 09:14:55;;;;;;;10.10;7.43;;;;;;;18.55;56.41;95681.31;5156942;27;20197;-64
2023/10/06 09:17:32;;;;;;;9.07;6.80;;;;;;;18.56;56.34;95674.56;5156982;27;20265;-64
2023/10/06 09:20:01;;;;;;;9.73;7.35;;;;;;;18.58;56.23;95679.75;5156841;27;20186;-64
2023/10/06 09:22:30;;;;;;;8.48;6.85;;;;;;;18.58;56.48;95682.53;5156553;27;20190;-64
2023/10/06 09:25:04;;;;;;;8.38;7.22;;;;;;;18.62;56.67;95683.34;5156282;27;20244;-64
2023/10/06 09:27:34;;;;;;;7.78;6.85;;;;;;;18.62;56.13;95684.16;5157189;27;20197;-64
2023/10/06 09:30:01;;;;;;;8.10;7.25;;;;;;;18.61;55.58;95676.97;5155934;27;20201;-64
2023/10/06 09:32:28;;;;;;;9.63;7.32;;;;;;;18.65;55.96;95682.56;5155833;27;20552;-64
2023/10/06 09:34:57;;;;;;;8.88;7.07;;;;;;;18.69;56.18;95686.19;5156841;27;20182;-64
2023/10/06 09:37:29;;;;;;;10.18;7.28;;;;;;;18.73;55.59;95676.66;5156867;27;20178;-64
2023/10/06 09:39:57;;;;;;;7.90;7.10;;;;;;;18.77;55.40;95676.69;5156454;27;20243;-64
2023/10/06 09:42:30;;;;;;;8.40;7.50;;;;;;;18.79;55.37;95682.69;5155932;27;20187;-64
2023/10/06 09:45:08;;;;;;;9.57;7.25;;;;;;;18.82;55.19;95672.72;5156979;27;20183;-64
2023/10/06 09:47:36;;;;;;;11.43;6.72;;;;;;;18.84;54.91;95678.72;5156440;27;20186;-64
2023/10/06 09:50:03;;;;;;;7.50;6.72;;;;;;;18.88;55.32;95677.56;5138539;27;20202;-64
2023/10/06 09:52:35;;;;;;;8.60;7.32;;;;;;;18.92;54.75;95666.41;5156866;27;20199;-64
2023/10/06 09:55:04;;;;;;;7.93;7.18;;;;;;;18.96;54.75;95664.41;5156668;27;20201;-64
2023/10/06 09:57:32;;;;;;;8.45;7.60;;;;;;;18.99;54.38;95675.63;5138403;27;20235;-64
2023/10/06 10:00:01;;;;;;;7.75;6.93;;;;;;;19.05;54.38;95686.41;5139234;27;20515;-64
2023/10/06 10:02:32;;;;;;;8.45;7.65;;;;;;;19.09;53.52;95676.03;5139265;27;20201;-64
2023/10/06 10:05:01;;;;;;;8.13;7.32;;;;;;;19.12;53.50;95666.88;5156556;27;20286;-64
2023/10/06 10:07:30;;;;;;;8.88;7.88;;;;;;;19.15;53.05;95674.47;5138546;27;20199;-65
2023/10/06 10:09:58;;;;;;;9.32;7.70;;;;;;;19.14;52.33;95665.28;5159866;27;20606;-65
2023/10/06 10:12:34;;;;;;;8.07;7.28;;;;;;;19.12;51.95;95666.88;5142087;27;20653;-65
2023/10/06 10:15:11;;;;;;;8.68;7.00;;;;;;;19.09;52.31;95656.47;5142689;27;20198;-64
2023/10/06 10:17:45;;;;;;;12.13;7.28;;;;;;;19.08;52.54;95672.44;5159930;27;20583;-64
2023/10/06 10:20:13;;;;;;;8.20;6.88;;;;;;;19.06;51.85;95657.25;5141991;27;20194;-64
2023/10/06 10:22:41;;;;;;;7.72;6.57;;;;;;;19.07;52.00;95662.47;5142048;27;20208;-64
2023/10/06 10:25:13;;;;;;;8.98;6.63;;;;;;;19.09;52.06;95653.66;5141862;27;20183;-64
2023/10/06 10:27:40;;;;;;;12.25;7.00;;;;;;;19.09;52.07;95660.06;5125283;27;20206;-64
2023/10/06 10:30:11;;;;;;;7.60;6.35;;;;;;;19.05;51.23;95650.84;5141722;27;20196;-64
2023/10/06 10:32:43;;;;;;;8.20;6.47;;;;;;;19.02;51.38;95651.63;5159910;27;20198;-64
2023/10/06 10:35:16;;;;;;;7.13;6.40;;;;;;;19.02;50.92;95646.03;5142370;27;20222;-64
2023/10/06 10:38:01;;;;;;;6.95;6.25;;;;;;;19.00;51.02;95638.06;5159627;27;20190;-64
2023/10/06 10:40:33;;;;;;;7.28;6.57;;;;;;;19.02;50.89;95643.25;5159480;27;20198;-64
2023/10/06 10:43:09;;;;;;;8.05;6.10;;;;;;;19.03;50.57;95635.66;5158725;27;20333;-64
2023/10/06 10:45:43;;;;;;;7.15;6.40;;;;;;;19.03;50.22;95630.91;5159318;27;20212;-64
2023/10/06 10:48:13;;;;;;;7.22;6.25;;;;;;;19.02;49.33;95629.28;5159251;27;20186;-64
2023/10/06 10:50:59;;;;;;;8.05;6.35;;;;;;;19.00;49.27;95626.88;5158896;27;20205;-64
2023/10/06 10:53:32;;;;;;;8.70;6.30;;;;;;;18.99;49.18;95621.66;5158514;27;20267;-64
2023/10/06 10:56:01;;;;;;;7.78;6.30;;;;;;;19.01;49.23;95622.09;5159527;27;20183;-64
2023/10/06 10:58:54;;;;;;;7.22;6.22;;;;;;;19.04;48.63;95618.50;5159428;27;20186;-64
2023/10/06 11:01:29;;;;;;;9.23;6.53;;;;;;;19.06;48.99;95616.09;5158783;27;20186;-64
2023/10/06 11:04:21;;;;;;;5.88;5.03;;;;;;;19.09;47.41;95614.53;5159221;27;20199;-65
2023/10/06 11:06:49;;;;;;;6.20;5.20;;;;;;;19.10;47.64;95605.75;5159502;27;20190;-64
2023/10/06 11:09:29;;;;;;;7.63;5.80;;;;;;;19.15;47.92;95610.16;5159872;27;20198;-64
2023/10/06 11:11:59;;;;;;;5.63;5.13;;;;;;;19.19;47.97;95599.78;5159105;27;20182;-64
2023/10/06 11:14:27;;;;;;;7.88;5.20;;;;;;;19.22;47.26;95602.59;5159374;27;20202;-64
2023/10/06 11:17:01;;;;;;;10.70;5.88;;;;;;;19.27;47.43;95595.78;5158799;27;20202;-64
2023/10/06 11:19:31;;;;;;;6.70;5.28;;;;;;;19.32;46.92;95598.22;5158804;27;20187;-64
2023/10/06 11:22:10;;;;;;;5.70;4.88;;;;;;;19.38;46.65;95593.81;5141386;27;20243;-64
2023/10/06 11:24:37;;;;;;;6.45;5.25;;;;;;;19.43;45.78;95581.47;5141025;27;20202;-64
2023/10/06 11:27:21;;;;;;;6.43;5.82;;;;;;;19.50;45.75;95589.84;5158530;27;20178;-64
2023/10/06 11:29:50;;;;;;;5.40;4.82;;;;;;;19.55;44.84;95595.03;5140851;27;20202;-64
2023/10/06 11:32:17;;;;;;;7.15;5.60;;;;;;;19.53;44.69;95586.25;5141191;27;20197;-64
2023/10/06 11:34:45;;;;;;;5.65;5.10;;;;;;;19.55;45.40;95594.25;5141271;27;20205;-64
2023/10/06 11:37:12;;;;;;;7.22;5.40;;;;;;;19.56;44.56;95588.25;5158621;27;20273;-64
2023/10/06 11:39:39;;;;;;;5.63;5.05;;;;;;;19.55;44.12;95583.84;5158656;27;20186;-64
2023/10/06 11:42:41;;;;;;;6.25;4.70;;;;;;;19.55;44.22;95585.84;5140033;27;20225;-64
2023/10/06 11:45:24;;;;;;;5.22;4.72;;;;;;;19.55;43.79;95594.25;5141157;27;20261;-64
2023/10/06 11:47:51;;;;;;;6.85;4.40;;;;;;;19.56;43.78;95585.44;5140519;27;20186;-64